Portada
METAR-TAF:

METAR-TAF

Aeroports :

Armenia, Colòmbia

latitud: 04-30N, longitud: 075-43W, altitud: 1204 m

Observació

L'informe es va fer fa 5 hores i 17 minuts, a les 04:00 UTC
Vent calma
Temperatura 20°C
Humitat 88%
Pressió 1019 hPa
Visibilitat 10 km o més
Núvols disperses a una alçada de 2000 ft
Núvols disperses a una alçada de 8000 ft

METAR: SKAR 190400Z 00000KT 9999 SCT020 SCT080 20/18 Q1019 RMK A3010

Hora: 04:17 (09:17 UTC)

Pronòstic

L'informe es va fer fa 4 hores i 47 minuts, a les 04:30 UTC
Pronòstic vàlid del 19 a les 06 UTC al 20 a les 06 UTC
Vent kt del Nord
Visibilitat 10 km o més
Núvols disperses a una alçada de 1700 ft
Temporalment
l' 19 a les 11 UTC al 19 a les 14 UTC
Visibilitat: 5000 m
Cel ennuvolat a una alçada de 1500 ft
boirina
Temporalment
l' 19 a les 21 UTC al 19 a les 24 UTC
Núvols disperses a una alçada de 1700 ft, Cumulonimbus.

TAF: SKAR 190430Z 1906/2006 00000KT 9999 SCT017 TEMPO 1911/1914 5000 BR BKN015 TEMPO 1921/1924 SCT017CB TX28/1919Z TN18/1911Z

Observacions i pronòstics meteorològics de més de 4000 aeroports (METAR i TAF).

Les estacions disponibles són els punts grocs i vermells al mapa.

Posi el ratolí al punt desitjat per veure el nom de l'estació.

Feu clic per veure les observacions i els pronòstics meteorològics.

Per canviar el mapa: feu clic els botons verds amb una creu de color negre per apropar; al botó verd amb un guió per allunyar la imatge; o en les fletxes verdes per a mapes adjacents.


METAR-TAF: